createdAt,value
2023-05-05T00:00:01.878Z,10.38
2023-05-05T00:02:30.431Z,9.68
2023-05-05T00:04:59.052Z,9.75
2023-05-05T00:07:27.597Z,9.98
2023-05-05T00:09:55.823Z,10.60
2023-05-05T00:12:24.399Z,11.45
2023-05-05T00:14:52.924Z,10.43
2023-05-05T00:17:21.145Z,10.57
2023-05-05T00:19:50.264Z,10.25
2023-05-05T00:22:18.364Z,9.73
2023-05-05T00:24:46.557Z,9.68
2023-05-05T00:27:15.158Z,9.63
2023-05-05T00:29:43.634Z,9.55
2023-05-05T00:32:11.859Z,9.15
2023-05-05T00:34:39.894Z,9.13
2023-05-05T00:37:08.577Z,9.60
2023-05-05T00:39:36.762Z,10.40
2023-05-05T00:42:04.900Z,10.35
2023-05-05T00:44:41.067Z,9.60
2023-05-05T00:47:10.307Z,10.85
2023-05-05T00:49:40.124Z,8.95
2023-05-05T00:52:10.378Z,10.07
2023-05-05T00:54:39.470Z,10.18
2023-05-05T00:57:08.206Z,9.45
2023-05-05T00:59:37.511Z,9.48
2023-05-05T01:02:05.960Z,9.35
2023-05-05T01:04:34.094Z,10.52
2023-05-05T01:07:04.019Z,9.60
2023-05-05T01:10:19.831Z,9.85
2023-05-05T01:12:55.945Z,9.05
2023-05-05T01:15:33.803Z,9.15
2023-05-05T01:18:27.762Z,8.80
2023-05-05T01:21:27.706Z,9.23
2023-05-05T01:23:56.490Z,9.57
2023-05-05T01:26:34.773Z,8.80
2023-05-05T01:29:23.167Z,9.40
2023-05-05T01:31:59.969Z,10.00
2023-05-05T01:34:45.755Z,9.32
2023-05-05T01:37:27.596Z,10.80
2023-05-05T01:40:02.421Z,10.70
2023-05-05T01:42:34.712Z,10.70
2023-05-05T01:45:08.507Z,12.02
2023-05-05T01:47:39.516Z,10.20
2023-05-05T01:50:09.383Z,10.55
2023-05-05T01:52:40.348Z,10.18
2023-05-05T01:55:11.346Z,9.63
2023-05-05T01:57:42.411Z,9.40
2023-05-05T02:00:12.081Z,9.43
2023-05-05T02:02:47.826Z,9.98
2023-05-05T02:05:19.426Z,11.27
2023-05-05T02:07:51.217Z,11.02
2023-05-05T02:10:41.049Z,9.77
2023-05-05T02:13:15.719Z,9.93
2023-05-05T02:15:45.026Z,10.02
2023-05-05T02:18:15.095Z,9.73
2023-05-05T02:20:44.547Z,9.27
2023-05-05T02:23:13.034Z,9.50
2023-05-05T02:25:49.812Z,10.57
2023-05-05T02:28:23.223Z,8.85
2023-05-05T02:33:32.665Z,8.85
2023-05-05T02:36:17.524Z,9.48
2023-05-05T02:39:03.607Z,9.88
2023-05-05T02:41:40.296Z,8.30
2023-05-05T02:44:25.001Z,9.98
2023-05-05T02:46:55.511Z,9.38
2023-05-05T02:49:25.214Z,8.93
2023-05-05T02:51:59.202Z,9.57
2023-05-05T02:54:32.828Z,8.88
2023-05-05T02:57:03.197Z,9.07
2023-05-05T02:59:47.351Z,8.82
2023-05-05T03:02:28.905Z,10.45
2023-05-05T03:05:10.006Z,10.52
2023-05-05T03:08:00.931Z,10.55
2023-05-05T03:10:39.854Z,11.07
2023-05-05T03:13:11.162Z,11.52
2023-05-05T03:15:53.073Z,12.48
2023-05-05T03:18:26.046Z,11.55
2023-05-05T03:21:10.860Z,11.57
2023-05-05T03:23:42.710Z,11.57
2023-05-05T03:26:19.248Z,11.48
2023-05-05T03:28:48.067Z,10.10
2023-05-05T03:31:25.600Z,9.35
2023-05-05T03:33:58.216Z,9.63
2023-05-05T03:36:30.684Z,8.55
2023-05-05T03:39:00.505Z,10.60
2023-05-05T03:41:33.231Z,9.02
2023-05-05T03:44:01.915Z,9.10
2023-05-05T03:46:31.309Z,8.57
2023-05-05T03:48:59.256Z,8.93
2023-05-05T03:51:28.662Z,9.65
2023-05-05T03:53:57.946Z,9.23
2023-05-05T03:56:26.915Z,10.05
2023-05-05T03:58:54.966Z,9.15
2023-05-05T04:01:23.641Z,10.02
2023-05-05T04:03:52.912Z,9.73
2023-05-05T04:06:21.789Z,9.35
2023-05-05T04:08:50.473Z,9.48
2023-05-05T04:11:18.699Z,9.68
2023-05-05T04:13:48.570Z,9.80
2023-05-05T04:16:16.924Z,8.38
2023-05-05T04:18:46.408Z,8.52
2023-05-05T04:21:14.894Z,7.65
2023-05-05T04:23:43.010Z,8.60
2023-05-05T04:26:12.661Z,8.00
2023-05-05T04:28:40.663Z,7.22
2023-05-05T04:31:10.742Z,8.27
2023-05-05T04:33:42.281Z,7.60
2023-05-05T04:36:11.240Z,8.65
2023-05-05T04:38:40.154Z,8.93
2023-05-05T04:41:09.302Z,8.57
2023-05-05T04:43:40.123Z,8.15
2023-05-05T04:46:08.165Z,8.25
2023-05-05T04:48:38.622Z,7.40
2023-05-05T04:51:08.102Z,7.90
2023-05-05T04:53:38.009Z,8.88
2023-05-05T04:56:06.298Z,6.80
2023-05-05T04:58:34.251Z,7.72
2023-05-05T05:01:03.483Z,7.60
2023-05-05T05:03:32.321Z,7.20
2023-05-05T05:06:00.775Z,6.60
2023-05-05T05:08:29.583Z,6.88
2023-05-05T05:10:59.317Z,6.32
2023-05-05T05:13:27.885Z,7.18
2023-05-05T05:15:56.060Z,6.38
2023-05-05T05:18:24.723Z,6.30
2023-05-05T05:20:53.314Z,6.32
2023-05-05T05:23:21.532Z,6.30
2023-05-05T05:25:50.985Z,5.43
2023-05-05T05:28:21.150Z,5.97
2023-05-05T05:30:55.288Z,6.22
2023-05-05T05:33:24.057Z,6.10
2023-05-05T05:35:53.264Z,6.47
2023-05-05T05:38:22.488Z,7.07
2023-05-05T05:40:54.652Z,6.43
2023-05-05T05:43:24.156Z,7.00
2023-05-05T05:45:53.167Z,6.10
2023-05-05T05:48:24.921Z,6.30
2023-05-05T05:50:54.008Z,6.22
2023-05-05T05:53:22.660Z,6.22
2023-05-05T05:55:52.492Z,5.72
2023-05-05T05:58:21.244Z,5.55
2023-05-05T06:00:50.050Z,5.63
2023-05-05T06:03:18.492Z,5.20
2023-05-05T06:05:47.499Z,7.18
2023-05-05T06:08:16.654Z,6.07
2023-05-05T06:13:20.355Z,5.88
2023-05-05T06:15:52.020Z,5.60
2023-05-05T06:18:20.515Z,6.00
2023-05-05T06:20:52.533Z,6.78
2023-05-05T06:23:23.770Z,6.30
2023-05-05T06:25:58.299Z,6.00
2023-05-05T06:28:27.346Z,6.18
2023-05-05T06:30:56.593Z,5.75
2023-05-05T06:33:24.568Z,6.40
2023-05-05T06:35:53.450Z,6.10
2023-05-05T06:38:22.406Z,6.82
2023-05-05T06:40:51.041Z,6.00
2023-05-05T06:43:20.210Z,6.53
2023-05-05T06:45:55.344Z,6.47
2023-05-05T06:48:23.959Z,5.50
2023-05-05T06:50:52.289Z,5.43
2023-05-05T06:53:20.979Z,4.63
2023-05-05T06:55:49.020Z,5.20
2023-05-05T06:58:18.032Z,5.35
2023-05-05T07:00:46.091Z,4.80
2023-05-05T07:03:15.071Z,5.25
2023-05-05T07:05:44.576Z,5.07
2023-05-05T07:08:13.657Z,4.80
2023-05-05T07:10:42.921Z,5.05
2023-05-05T07:13:11.193Z,5.30
2023-05-05T07:15:46.453Z,5.32
2023-05-05T07:18:15.406Z,6.35
2023-05-05T07:20:44.583Z,5.43
2023-05-05T07:23:13.985Z,5.00
2023-05-05T07:25:42.106Z,4.80
2023-05-05T07:28:11.604Z,4.60
2023-05-05T07:30:40.132Z,4.70
2023-05-05T07:33:09.171Z,4.65
2023-05-05T07:35:40.136Z,5.15
2023-05-05T07:38:10.804Z,5.05
2023-05-05T07:40:39.566Z,5.97
2023-05-05T07:43:07.976Z,5.22
2023-05-05T07:45:36.580Z,4.80
2023-05-05T07:48:05.268Z,5.10
2023-05-05T07:50:33.787Z,5.38
2023-05-05T07:53:13.916Z,5.60
2023-05-05T07:55:44.220Z,4.72
2023-05-05T07:58:13.063Z,4.30
2023-05-05T08:00:41.635Z,4.25
2023-05-05T08:03:12.029Z,5.88
2023-05-05T08:05:40.848Z,4.63
2023-05-05T08:08:09.437Z,4.80
2023-05-05T08:10:38.398Z,4.45
2023-05-05T08:13:06.648Z,4.38
2023-05-05T08:15:35.661Z,4.28
2023-05-05T08:18:04.430Z,4.10
2023-05-05T08:20:33.033Z,4.45
2023-05-05T08:23:01.933Z,4.50
2023-05-05T08:25:30.441Z,4.82
2023-05-05T08:27:58.413Z,4.65
2023-05-05T08:30:29.692Z,4.70
2023-05-05T08:32:59.453Z,4.93
2023-05-05T08:35:28.398Z,4.43
2023-05-05T08:37:58.899Z,4.40
2023-05-05T08:40:33.308Z,5.00
2023-05-05T08:43:02.088Z,4.50
2023-05-05T08:45:32.228Z,4.50
2023-05-05T08:48:05.841Z,4.70
2023-05-05T08:50:34.442Z,4.13
2023-05-05T08:53:17.059Z,4.32
2023-05-05T08:55:52.107Z,4.50
2023-05-05T08:58:21.928Z,4.35
2023-05-05T09:00:51.899Z,4.10
2023-05-05T09:03:21.272Z,4.82
2023-05-05T09:05:51.141Z,4.40
2023-05-05T09:08:21.564Z,4.55
2023-05-05T09:10:51.936Z,4.10
2023-05-05T09:13:30.258Z,4.47
2023-05-05T09:15:59.751Z,4.78
2023-05-05T09:18:29.197Z,4.38
2023-05-05T09:20:59.390Z,4.10
2023-05-05T09:23:28.414Z,4.88
2023-05-05T09:26:09.065Z,4.20
2023-05-05T09:28:37.706Z,4.50
2023-05-05T09:31:14.090Z,4.95
2023-05-05T09:33:43.889Z,4.93
2023-05-05T09:36:12.425Z,4.82
2023-05-05T09:38:40.846Z,4.50
2023-05-05T09:41:09.531Z,5.05
2023-05-05T09:43:59.107Z,5.68
2023-05-05T09:46:27.773Z,4.30
2023-05-05T09:48:56.797Z,5.38
2023-05-05T09:51:31.848Z,4.95
2023-05-05T09:54:00.546Z,4.70
2023-05-05T09:56:41.322Z,4.50
2023-05-05T09:59:11.085Z,3.65
2023-05-05T10:01:39.809Z,4.40
2023-05-05T10:04:08.284Z,3.80
2023-05-05T10:06:43.663Z,4.32
2023-05-05T10:09:12.265Z,5.65
2023-05-05T10:11:42.856Z,5.10
2023-05-05T10:14:15.169Z,4.25
2023-05-05T10:16:52.694Z,4.32
2023-05-05T10:19:23.028Z,4.45
2023-05-05T10:21:59.375Z,3.92
2023-05-05T10:24:47.847Z,4.00
2023-05-05T10:27:19.787Z,4.30
2023-05-05T10:30:07.772Z,4.40
2023-05-05T10:33:03.561Z,4.13
2023-05-05T10:35:40.940Z,5.20
2023-05-05T10:40:39.734Z,5.82
2023-05-05T10:43:08.460Z,4.35
2023-05-05T10:45:38.723Z,5.07
2023-05-05T10:48:13.062Z,3.85
2023-05-05T10:51:03.904Z,3.50
2023-05-05T10:53:43.000Z,3.60
2023-05-05T10:56:27.336Z,4.60
2023-05-05T10:59:00.208Z,4.03
2023-05-05T11:01:32.355Z,4.47
2023-05-05T11:04:20.000Z,3.70
2023-05-05T11:07:11.819Z,3.60
2023-05-05T11:10:01.615Z,3.10
2023-05-05T11:13:00.153Z,2.95
2023-05-05T11:15:31.617Z,2.83
2023-05-05T11:18:07.575Z,3.72
2023-05-05T11:20:40.142Z,4.22
2023-05-05T11:23:08.957Z,3.05
2023-05-05T11:25:41.331Z,3.95
2023-05-05T11:28:11.533Z,3.58
2023-05-05T11:30:56.032Z,3.72
2023-05-05T11:33:37.993Z,3.65
2023-05-05T11:36:09.369Z,4.30
2023-05-05T11:39:00.419Z,4.20
2023-05-05T11:41:32.509Z,4.22
2023-05-05T11:44:21.045Z,3.60
2023-05-05T11:46:52.716Z,3.72
2023-05-05T11:49:28.836Z,3.97
2023-05-05T11:51:58.774Z,3.55
2023-05-05T11:54:28.205Z,3.50
2023-05-05T11:57:09.373Z,2.83
2023-05-05T11:59:57.689Z,3.25
2023-05-05T12:02:30.342Z,3.83
2023-05-05T12:07:33.802Z,3.20
2023-05-05T12:10:03.109Z,3.15
2023-05-05T12:12:37.397Z,3.53
2023-05-05T12:15:08.279Z,3.47
2023-05-05T12:17:40.083Z,3.50
2023-05-05T12:20:11.165Z,3.70
2023-05-05T12:22:41.130Z,3.85
2023-05-05T12:25:10.695Z,3.70
2023-05-05T12:27:39.125Z,3.80
2023-05-05T12:30:16.573Z,3.67
2023-05-05T12:32:46.501Z,4.15
2023-05-05T12:35:16.189Z,3.88
2023-05-05T12:37:45.575Z,3.25
2023-05-05T12:40:48.925Z,3.40
2023-05-05T12:46:08.055Z,4.22
2023-05-05T12:48:39.036Z,3.45
2023-05-05T12:51:23.688Z,3.53
2023-05-05T12:54:23.897Z,3.83
2023-05-05T12:56:52.047Z,3.53
2023-05-05T12:59:24.597Z,3.63
2023-05-05T13:04:27.480Z,3.63
2023-05-05T13:07:14.047Z,3.75
2023-05-05T13:09:43.034Z,3.33
2023-05-05T13:12:12.489Z,3.70
2023-05-05T13:14:41.930Z,3.75
2023-05-05T13:17:12.021Z,3.75
2023-05-05T13:19:46.738Z,3.63
2023-05-05T13:22:16.673Z,3.33
2023-05-05T13:24:51.789Z,4.38
2023-05-05T13:27:21.456Z,3.60
2023-05-05T13:29:49.933Z,3.22
2023-05-05T13:32:19.044Z,3.42
2023-05-05T13:34:47.798Z,3.50
2023-05-05T13:37:16.129Z,3.75
2023-05-05T13:39:45.153Z,3.72
2023-05-05T13:42:13.376Z,4.40
2023-05-05T13:44:42.131Z,3.95
2023-05-05T13:47:11.647Z,5.15
2023-05-05T13:49:40.257Z,3.83
2023-05-05T13:52:08.938Z,3.67
2023-05-05T13:54:38.397Z,4.15
2023-05-05T13:57:08.153Z,3.70
2023-05-05T13:59:36.426Z,4.00
2023-05-05T14:02:04.577Z,3.92
2023-05-05T14:04:33.635Z,3.60
2023-05-05T14:07:02.952Z,3.50
2023-05-05T14:09:31.079Z,3.90
2023-05-05T14:11:59.599Z,3.63
2023-05-05T14:14:29.598Z,4.38
2023-05-05T14:16:58.323Z,4.15
2023-05-05T14:19:26.854Z,3.85
2023-05-05T14:21:55.623Z,4.10
2023-05-05T14:24:24.262Z,3.75
2023-05-05T14:26:53.411Z,4.28
2023-05-05T14:29:22.391Z,4.55
2023-05-05T14:31:50.587Z,4.00
2023-05-05T14:34:19.403Z,3.92
2023-05-05T14:36:47.611Z,3.92
2023-05-05T14:39:16.831Z,3.80
2023-05-05T14:41:45.222Z,3.47
2023-05-05T14:44:13.864Z,3.72
2023-05-05T14:46:43.565Z,4.03
2023-05-05T14:49:13.931Z,4.18
2023-05-05T14:51:43.246Z,3.90
2023-05-05T14:54:24.136Z,4.28
2023-05-05T14:56:56.637Z,3.97
2023-05-05T14:59:25.688Z,4.55
2023-05-05T15:01:54.405Z,4.97
2023-05-05T15:04:23.490Z,4.50
2023-05-05T15:06:52.400Z,4.75
2023-05-05T15:09:21.516Z,4.82
2023-05-05T15:11:50.225Z,4.18
2023-05-05T15:14:18.999Z,3.97
2023-05-05T15:16:47.914Z,4.60
2023-05-05T15:19:16.842Z,3.95
2023-05-05T15:21:45.061Z,4.25
2023-05-05T15:24:13.550Z,4.22
2023-05-05T15:26:42.092Z,4.32
2023-05-05T15:29:10.938Z,4.60
2023-05-05T15:31:39.760Z,4.82
2023-05-05T15:34:08.921Z,4.32
2023-05-05T15:36:37.116Z,4.53
2023-05-05T15:39:06.268Z,3.95
2023-05-05T15:41:34.950Z,4.90
2023-05-05T15:44:05.033Z,8.07
2023-05-05T15:46:34.811Z,5.07
2023-05-05T15:49:03.891Z,4.63
2023-05-05T15:51:33.204Z,4.90
2023-05-05T15:54:02.346Z,4.75
2023-05-05T15:56:30.970Z,4.82
2023-05-05T15:58:59.744Z,4.57
2023-05-05T16:01:27.858Z,4.85
2023-05-05T16:03:57.674Z,4.78
2023-05-05T16:06:27.382Z,5.10
2023-05-05T16:08:58.772Z,5.10
2023-05-05T16:11:28.101Z,5.53
2023-05-05T16:13:56.667Z,4.93
2023-05-05T16:16:25.447Z,5.22
2023-05-05T16:18:54.277Z,5.25
2023-05-05T16:21:23.065Z,5.35
2023-05-05T16:23:51.745Z,5.60
2023-05-05T16:26:21.259Z,4.97
2023-05-05T16:28:49.981Z,5.07
2023-05-05T16:31:18.520Z,4.88
2023-05-05T16:33:46.708Z,5.07
2023-05-05T16:36:15.453Z,5.22
2023-05-05T16:38:44.354Z,4.63
2023-05-05T16:41:13.264Z,5.28
2023-05-05T16:43:41.859Z,4.45
2023-05-05T16:46:11.342Z,5.05
2023-05-05T16:48:39.431Z,5.00
2023-05-05T16:51:08.849Z,5.00
2023-05-05T16:53:38.547Z,5.50
2023-05-05T16:56:07.753Z,6.00
2023-05-05T16:58:36.346Z,5.57
2023-05-05T17:01:06.027Z,5.43
2023-05-05T17:03:34.979Z,5.70
2023-05-05T17:06:03.989Z,5.95
2023-05-05T17:08:32.968Z,6.35
2023-05-05T17:11:02.103Z,6.07
2023-05-05T17:13:31.311Z,6.38
2023-05-05T17:15:59.408Z,5.80
2023-05-05T17:18:27.954Z,6.07
2023-05-05T17:20:57.495Z,6.20
2023-05-05T17:23:27.496Z,6.10
2023-05-05T17:25:59.099Z,6.85
2023-05-05T17:28:27.771Z,6.57
2023-05-05T17:30:59.666Z,7.55
2023-05-05T17:33:28.958Z,6.67
2023-05-05T17:35:57.783Z,7.15
2023-05-05T17:38:26.800Z,7.03
2023-05-05T17:40:55.691Z,6.50
2023-05-05T17:43:24.217Z,7.40
2023-05-05T17:45:53.414Z,6.65
2023-05-05T17:48:21.681Z,7.00
2023-05-05T17:50:51.179Z,8.07
2023-05-05T17:53:19.570Z,7.75
2023-05-05T17:55:48.594Z,7.68
2023-05-05T17:58:17.564Z,7.50
2023-05-05T18:00:46.340Z,7.72
2023-05-05T18:03:15.049Z,8.40
2023-05-05T18:05:43.626Z,7.75
2023-05-05T18:08:12.414Z,8.13
2023-05-05T18:10:41.352Z,7.80
2023-05-05T18:13:10.775Z,8.70
2023-05-05T18:15:40.360Z,8.00
2023-05-05T18:18:09.387Z,7.95
2023-05-05T18:20:38.467Z,8.65
2023-05-05T18:23:07.686Z,8.73
2023-05-05T18:25:36.853Z,8.85
2023-05-05T18:28:06.312Z,8.80
2023-05-05T18:30:35.782Z,8.80
2023-05-05T18:33:04.794Z,7.88
2023-05-05T18:35:33.584Z,9.15
2023-05-05T18:38:02.720Z,8.25
2023-05-05T18:40:31.854Z,9.57
2023-05-05T18:42:59.993Z,9.10
2023-05-05T18:45:28.669Z,9.10
2023-05-05T18:47:56.744Z,10.77
2023-05-05T18:50:26.005Z,9.27
2023-05-05T18:52:55.070Z,10.07
2023-05-05T18:55:24.006Z,10.10
2023-05-05T18:57:53.482Z,11.20
2023-05-05T19:00:21.849Z,8.80
2023-05-05T19:02:51.535Z,8.75
2023-05-05T19:05:20.135Z,7.82
2023-05-05T19:07:48.989Z,7.85
2023-05-05T19:10:17.235Z,8.60
2023-05-05T19:12:45.917Z,8.50
2023-05-05T19:15:14.136Z,9.07
2023-05-05T19:17:43.067Z,9.30
2023-05-05T19:20:12.239Z,9.88
2023-05-05T19:22:40.214Z,9.13
2023-05-05T19:25:09.364Z,9.13
2023-05-05T19:27:37.704Z,9.82
2023-05-05T19:30:07.863Z,9.43
2023-05-05T19:32:36.708Z,8.70
2023-05-05T19:35:06.905Z,8.77
2023-05-05T19:37:35.788Z,8.20
2023-05-05T19:40:04.291Z,9.32
2023-05-05T19:42:33.226Z,9.85
2023-05-05T19:45:03.052Z,9.13
2023-05-05T19:47:36.397Z,9.90
2023-05-05T19:50:05.315Z,8.95
2023-05-05T19:52:36.850Z,11.55
2023-05-05T19:55:05.839Z,13.60
2023-05-05T19:57:34.714Z,17.10
2023-05-05T20:00:04.165Z,12.52
2023-05-05T20:02:37.017Z,12.90
2023-05-05T20:05:05.833Z,14.07
2023-05-05T20:07:34.858Z,14.80
2023-05-05T20:10:04.054Z,15.55
2023-05-05T20:12:33.224Z,13.57
2023-05-05T20:15:01.690Z,14.50
2023-05-05T20:17:32.882Z,18.95
2023-05-05T20:20:01.535Z,18.88
2023-05-05T20:22:33.526Z,18.80
2023-05-05T20:25:02.893Z,17.13
2023-05-05T20:27:33.479Z,16.05
2023-05-05T20:30:03.313Z,16.42
2023-05-05T20:32:33.804Z,18.52
2023-05-05T20:35:04.734Z,17.35
2023-05-05T20:37:33.652Z,18.10
2023-05-05T20:40:02.922Z,20.88
2023-05-05T20:42:32.880Z,13.73
2023-05-05T20:45:02.435Z,15.18
2023-05-05T20:47:35.587Z,16.20
2023-05-05T20:50:04.428Z,15.65
2023-05-05T20:52:34.803Z,14.65
2023-05-05T20:55:04.096Z,12.70
2023-05-05T20:57:34.604Z,14.68
2023-05-05T21:00:04.213Z,14.57
2023-05-05T21:02:36.254Z,16.63
2023-05-05T21:05:05.351Z,16.75
2023-05-05T21:07:34.539Z,13.68
2023-05-05T21:10:04.090Z,9.80
2023-05-05T21:12:35.512Z,10.73
2023-05-05T21:15:04.631Z,8.85
2023-05-05T21:17:35.144Z,9.55
2023-05-05T21:20:03.918Z,12.55
2023-05-05T21:22:34.129Z,15.07
2023-05-05T21:25:14.947Z,14.75
2023-05-05T21:27:44.033Z,13.85
2023-05-05T21:30:13.107Z,15.00
2023-05-05T21:32:42.531Z,13.85
2023-05-05T21:35:11.295Z,12.73
2023-05-05T21:37:40.587Z,12.45
2023-05-05T21:40:11.339Z,11.18
2023-05-05T21:42:41.360Z,12.15
2023-05-05T21:45:11.301Z,11.30
2023-05-05T21:47:39.979Z,9.88
2023-05-05T21:50:10.679Z,9.48
2023-05-05T21:52:39.354Z,9.57
2023-05-05T21:55:08.461Z,8.80
2023-05-05T21:57:36.709Z,7.05
2023-05-05T22:00:06.501Z,8.50
2023-05-05T22:02:42.274Z,8.52
2023-05-05T22:05:10.850Z,8.50
2023-05-05T22:07:58.124Z,6.30
2023-05-05T22:13:00.358Z,6.53
2023-05-05T22:15:32.974Z,7.20
2023-05-05T22:18:11.660Z,8.73
2023-05-05T22:20:40.927Z,8.65
2023-05-05T22:23:10.066Z,8.50
2023-05-05T22:25:38.652Z,9.30
2023-05-05T22:28:07.217Z,8.93
2023-05-05T22:30:35.940Z,8.82
2023-05-05T22:33:04.250Z,7.65
2023-05-05T22:35:32.797Z,7.85
2023-05-05T22:38:01.645Z,8.35
2023-05-05T22:40:30.794Z,9.45
2023-05-05T22:42:59.760Z,8.48
2023-05-05T22:45:28.511Z,9.55
2023-05-05T22:47:57.425Z,8.35
2023-05-05T22:50:26.030Z,7.20
2023-05-05T22:52:54.288Z,8.13
2023-05-05T22:55:24.496Z,8.70
2023-05-05T22:57:52.792Z,9.00
2023-05-05T23:00:21.564Z,7.93
2023-05-05T23:02:50.562Z,8.43
2023-05-05T23:05:19.452Z,9.88
2023-05-05T23:07:47.440Z,9.15
2023-05-05T23:10:15.793Z,8.77
2023-05-05T23:12:44.852Z,8.50
2023-05-05T23:15:13.467Z,7.90
2023-05-05T23:17:41.704Z,8.40
2023-05-05T23:20:13.325Z,9.48
2023-05-05T23:22:42.219Z,10.80
2023-05-05T23:25:11.467Z,11.27
2023-05-05T23:27:42.841Z,11.38
2023-05-05T23:30:11.372Z,10.55
2023-05-05T23:32:39.688Z,10.77
2023-05-05T23:35:09.328Z,10.20
2023-05-05T23:37:38.046Z,10.15
2023-05-05T23:40:07.717Z,8.85
2023-05-05T23:42:36.832Z,9.35
2023-05-05T23:45:05.892Z,9.52
2023-05-05T23:47:34.447Z,9.48
2023-05-05T23:50:02.784Z,10.45
2023-05-05T23:52:32.428Z,9.68
2023-05-05T23:55:00.879Z,10.63
2023-05-05T23:57:29.603Z,10.55
2023-05-05T23:59:58.489Z,9.13
